createdAt,value
2023-01-08T00:01:11.118Z,67.06
2023-01-08T00:03:38.978Z,66.74
2023-01-08T00:06:07.611Z,67.00
2023-01-08T00:08:36.312Z,67.04
2023-01-08T00:11:03.688Z,66.88
2023-01-08T00:13:31.104Z,66.76
2023-01-08T00:15:58.516Z,66.92
2023-01-08T00:18:27.188Z,66.99
2023-01-08T00:20:54.558Z,67.05
2023-01-08T00:23:22.899Z,66.90
2023-01-08T00:25:51.629Z,66.81
2023-01-08T00:28:20.822Z,67.05
2023-01-08T00:30:48.396Z,67.07
2023-01-08T00:33:16.097Z,67.13
2023-01-08T00:35:43.490Z,67.04
2023-01-08T00:38:10.887Z,66.95
2023-01-08T00:40:38.474Z,67.09
2023-01-08T00:43:07.206Z,67.01
2023-01-08T00:45:34.634Z,67.12
2023-01-08T00:48:02.063Z,67.01
2023-01-08T00:50:29.447Z,67.01
2023-01-08T00:52:56.824Z,67.00
2023-01-08T00:55:24.199Z,66.96
2023-01-08T00:57:51.639Z,66.86
2023-01-08T01:00:20.373Z,66.97
2023-01-08T01:02:47.755Z,67.05
2023-01-08T01:05:16.871Z,66.86
2023-01-08T01:07:44.442Z,67.01
2023-01-08T01:10:11.989Z,67.04
2023-01-08T01:12:39.540Z,67.01
2023-01-08T01:15:08.085Z,67.05
2023-01-08T01:17:38.572Z,67.07
2023-01-08T01:20:06.774Z,66.53
2023-01-08T01:22:34.172Z,66.97
2023-01-08T01:25:01.619Z,67.05
2023-01-08T01:27:29.016Z,66.90
2023-01-08T01:29:56.397Z,66.91
2023-01-08T01:32:23.878Z,66.87
2023-01-08T01:34:52.659Z,67.05
2023-01-08T01:37:20.077Z,66.90
2023-01-08T01:39:47.600Z,66.85
2023-01-08T01:42:36.329Z,66.61
2023-01-08T01:45:04.205Z,66.88
2023-01-08T01:47:33.060Z,66.94
2023-01-08T01:50:04.234Z,66.92
2023-01-08T01:52:32.162Z,66.62
2023-01-08T01:54:59.854Z,66.95
2023-01-08T01:57:27.222Z,66.89
2023-01-08T01:59:54.825Z,66.87
2023-01-08T02:02:23.093Z,66.75
2023-01-08T02:04:50.677Z,66.82
2023-01-08T02:07:23.056Z,66.70
2023-01-08T02:09:52.881Z,66.67
2023-01-08T02:12:21.926Z,66.79
2023-01-08T02:14:58.878Z,66.69
2023-01-08T02:17:29.072Z,66.72
2023-01-08T02:19:57.020Z,66.76
2023-01-08T02:22:32.046Z,66.97
2023-01-08T02:25:02.660Z,66.87
2023-01-08T02:27:31.916Z,66.96
2023-01-08T02:29:59.283Z,66.93
2023-01-08T02:32:27.489Z,67.04
2023-01-08T02:34:54.931Z,66.86
2023-01-08T02:37:22.321Z,66.68
2023-01-08T02:39:56.735Z,66.96
2023-01-08T02:42:25.455Z,66.78
2023-01-08T02:44:56.844Z,66.59
2023-01-08T02:47:27.133Z,66.93
2023-01-08T02:49:56.172Z,66.92
2023-01-08T02:52:23.571Z,66.89
2023-01-08T02:54:50.967Z,66.75
2023-01-08T02:57:18.352Z,66.89
2023-01-08T02:59:45.857Z,66.70
2023-01-08T03:02:14.730Z,66.71
2023-01-08T03:04:45.686Z,66.67
2023-01-08T03:07:13.059Z,66.87
2023-01-08T03:09:40.461Z,66.79
2023-01-08T03:12:11.130Z,66.75
2023-01-08T03:14:40.951Z,66.78
2023-01-08T03:17:09.549Z,66.89
2023-01-08T03:19:41.154Z,66.72
2023-01-08T03:22:08.816Z,66.91
2023-01-08T03:24:36.228Z,66.88
2023-01-08T03:27:04.868Z,66.83
2023-01-08T03:29:32.260Z,66.89
2023-01-08T03:32:01.982Z,66.94
2023-01-08T03:34:29.434Z,66.93
2023-01-08T03:36:59.017Z,67.00
2023-01-08T03:39:27.560Z,67.06
2023-01-08T03:41:56.733Z,66.96
2023-01-08T03:44:24.254Z,67.08
2023-01-08T03:46:53.369Z,67.01
2023-01-08T03:49:20.891Z,67.04
2023-01-08T03:51:48.427Z,67.07
2023-01-08T03:54:18.141Z,66.96
2023-01-08T03:56:45.540Z,67.18
2023-01-08T03:59:13.055Z,67.05
2023-01-08T04:01:40.563Z,67.10
2023-01-08T04:04:08.156Z,67.15
2023-01-08T04:06:35.628Z,66.97
2023-01-08T04:09:03.062Z,67.02
2023-01-08T04:11:32.311Z,66.80
2023-01-08T04:13:59.775Z,67.00
2023-01-08T04:16:27.164Z,67.16
2023-01-08T04:18:54.558Z,66.94
2023-01-08T04:21:21.947Z,67.10
2023-01-08T04:23:49.689Z,67.11
2023-01-08T04:26:17.070Z,67.01
2023-01-08T04:28:45.778Z,67.07
2023-01-08T04:31:13.195Z,67.22
2023-01-08T04:33:40.595Z,67.16
2023-01-08T04:36:08.241Z,67.08
2023-01-08T04:38:35.640Z,67.27
2023-01-08T04:41:03.139Z,67.10
2023-01-08T04:43:30.745Z,67.23
2023-01-08T04:46:00.086Z,67.30
2023-01-08T04:48:27.541Z,67.27
2023-01-08T04:50:54.975Z,67.17
2023-01-08T04:53:22.369Z,67.16
2023-01-08T04:55:49.787Z,67.20
2023-01-08T04:58:17.176Z,67.18
2023-01-08T05:00:44.547Z,67.09
2023-01-08T05:03:13.316Z,67.26
2023-01-08T05:05:40.704Z,67.29
2023-01-08T05:08:08.104Z,67.24
2023-01-08T05:10:35.503Z,67.23
2023-01-08T05:13:02.903Z,67.32
2023-01-08T05:15:30.376Z,67.56
2023-01-08T05:18:00.849Z,67.21
2023-01-08T05:20:29.572Z,67.28
2023-01-08T05:22:58.334Z,67.33
2023-01-08T05:25:25.740Z,67.31
2023-01-08T05:27:53.253Z,67.24
2023-01-08T05:30:20.735Z,67.23
2023-01-08T05:32:48.115Z,67.23
2023-01-08T05:35:15.530Z,67.36
2023-01-08T05:37:44.251Z,67.28
2023-01-08T05:40:12.847Z,67.36
2023-01-08T05:42:40.240Z,67.26
2023-01-08T05:45:08.872Z,67.27
2023-01-08T05:47:36.349Z,67.37
2023-01-08T05:50:03.772Z,67.32
2023-01-08T05:52:31.157Z,66.99
2023-01-08T05:55:00.369Z,67.22
2023-01-08T05:57:27.776Z,67.44
2023-01-08T05:59:55.223Z,67.26
2023-01-08T06:02:22.623Z,67.39
2023-01-08T06:04:50.025Z,67.31
2023-01-08T06:07:17.406Z,67.23
2023-01-08T06:09:44.794Z,67.41
2023-01-08T06:12:13.506Z,67.39
2023-01-08T06:14:40.920Z,67.41
2023-01-08T06:17:08.332Z,67.39
2023-01-08T06:19:35.748Z,67.32
2023-01-08T06:22:03.128Z,67.55
2023-01-08T06:24:30.536Z,67.44
2023-01-08T06:26:57.920Z,67.30
2023-01-08T06:29:26.632Z,67.33
2023-01-08T06:31:54.047Z,67.46
2023-01-08T06:34:21.442Z,67.40
2023-01-08T06:36:48.828Z,67.48
2023-01-08T06:39:16.242Z,67.55
2023-01-08T06:41:43.717Z,67.41
2023-01-08T06:44:11.099Z,67.60
2023-01-08T06:46:40.449Z,67.62
2023-01-08T06:49:07.885Z,67.50
2023-01-08T06:51:35.281Z,67.75
2023-01-08T06:54:02.763Z,67.67
2023-01-08T06:56:30.144Z,67.59
2023-01-08T06:58:57.532Z,67.64
2023-01-08T07:01:25.034Z,67.51
2023-01-08T07:03:53.817Z,67.36
2023-01-08T07:06:21.869Z,67.65
2023-01-08T07:08:49.338Z,67.48
2023-01-08T07:11:16.873Z,67.72
2023-01-08T07:13:44.273Z,67.45
2023-01-08T07:16:12.994Z,67.69
2023-01-08T07:18:40.735Z,67.58
2023-01-08T07:21:09.557Z,67.59
2023-01-08T07:23:38.125Z,67.66
2023-01-08T07:26:06.427Z,67.38
2023-01-08T07:28:33.919Z,67.54
2023-01-08T07:31:03.997Z,67.50
2023-01-08T07:33:31.275Z,67.53
2023-01-08T07:35:58.715Z,67.53
2023-01-08T07:38:27.443Z,67.72
2023-01-08T07:40:54.841Z,67.64
2023-01-08T07:43:22.254Z,67.68
2023-01-08T07:45:49.679Z,67.54
2023-01-08T07:48:17.063Z,67.71
2023-01-08T07:50:45.025Z,67.80
2023-01-08T07:53:13.480Z,67.59
2023-01-08T07:55:42.237Z,67.71
2023-01-08T07:58:10.175Z,67.66
2023-01-08T08:00:37.580Z,67.82
2023-01-08T08:03:05.910Z,67.88
2023-01-08T08:05:33.783Z,67.75
2023-01-08T08:10:19.350Z,67.69
2023-01-08T08:12:48.034Z,67.81
2023-01-08T08:15:15.530Z,67.81
2023-01-08T08:17:45.969Z,67.68
2023-01-08T08:20:13.405Z,67.86
2023-01-08T08:22:40.841Z,67.70
2023-01-08T08:25:09.033Z,67.82
2023-01-08T08:27:36.440Z,67.82
2023-01-08T08:30:06.052Z,67.92
2023-01-08T08:32:33.456Z,67.86
2023-01-08T08:35:00.899Z,67.82
2023-01-08T08:37:28.267Z,67.78
2023-01-08T08:39:55.671Z,67.75
2023-01-08T08:42:23.055Z,67.71
2023-01-08T08:44:50.465Z,67.87
2023-01-08T08:47:19.179Z,67.84
2023-01-08T08:49:46.585Z,67.91
2023-01-08T08:52:13.986Z,67.93
2023-01-08T08:54:41.603Z,67.74
2023-01-08T08:57:09.301Z,67.91
2023-01-08T08:59:36.739Z,67.88
2023-01-08T09:02:04.441Z,67.81
2023-01-08T09:04:33.627Z,67.87
2023-01-08T09:07:01.083Z,67.92
2023-01-08T09:09:28.452Z,68.01
2023-01-08T09:11:55.842Z,67.76
2023-01-08T09:14:23.215Z,67.92
2023-01-08T09:16:50.576Z,67.79
2023-01-08T09:19:17.960Z,67.94
2023-01-08T09:21:46.665Z,67.88
2023-01-08T09:24:14.499Z,67.83
2023-01-08T09:26:41.882Z,67.78
2023-01-08T09:29:09.304Z,67.66
2023-01-08T09:31:36.776Z,67.80
2023-01-08T09:34:04.238Z,67.57
2023-01-08T09:36:31.618Z,67.74
2023-01-08T09:39:00.367Z,67.66
2023-01-08T09:41:28.749Z,67.84
2023-01-08T09:43:56.646Z,67.68
2023-01-08T09:46:25.704Z,67.55
2023-01-08T09:48:53.403Z,67.37
2023-01-08T09:51:20.984Z,67.52
2023-01-08T09:53:50.561Z,67.40
2023-01-08T09:56:19.610Z,67.17
2023-01-08T09:58:48.857Z,67.43
2023-01-08T10:01:17.106Z,67.60
2023-01-08T10:03:45.361Z,67.33
2023-01-08T10:06:13.399Z,67.67
2023-01-08T10:08:40.971Z,67.45
2023-01-08T10:11:08.754Z,67.25
2023-01-08T10:13:38.584Z,67.34
2023-01-08T10:16:07.514Z,67.18
2023-01-08T10:18:34.943Z,67.20
2023-01-08T10:21:02.302Z,67.32
2023-01-08T10:23:29.706Z,67.52
2023-01-08T10:25:58.354Z,67.40
2023-01-08T10:28:26.590Z,67.43
2023-01-08T10:30:59.334Z,66.85
2023-01-08T10:33:27.944Z,67.06
2023-01-08T10:35:56.979Z,67.19
2023-01-08T10:38:26.377Z,67.08
2023-01-08T10:40:53.767Z,66.98
2023-01-08T10:43:22.203Z,67.00
2023-01-08T10:45:58.438Z,67.12
2023-01-08T10:48:28.446Z,66.91
2023-01-08T10:51:06.979Z,67.01
2023-01-08T10:53:34.595Z,66.96
2023-01-08T10:56:02.611Z,66.75
2023-01-08T10:58:30.214Z,66.42
2023-01-08T11:01:09.718Z,66.25
2023-01-08T11:03:37.177Z,66.06
2023-01-08T11:06:11.646Z,65.87
2023-01-08T11:08:39.037Z,65.84
2023-01-08T11:11:06.421Z,65.66
2023-01-08T11:13:33.849Z,65.55
2023-01-08T11:16:04.876Z,65.58
2023-01-08T11:18:32.273Z,65.38
2023-01-08T11:21:08.457Z,65.25
2023-01-08T11:23:35.854Z,65.32
2023-01-08T11:26:06.149Z,65.25
2023-01-08T11:28:39.323Z,65.25
2023-01-08T11:31:14.393Z,65.42
2023-01-08T11:33:41.780Z,65.39
2023-01-08T11:36:13.624Z,65.62
2023-01-08T11:38:42.179Z,65.27
2023-01-08T11:41:19.956Z,65.51
2023-01-08T11:43:54.261Z,65.61
2023-01-08T11:46:28.589Z,65.80
2023-01-08T11:49:28.483Z,65.74
2023-01-08T11:52:03.264Z,65.84
2023-01-08T11:54:41.879Z,65.77
2023-01-08T11:57:16.357Z,65.83
2023-01-08T11:59:54.744Z,65.81
2023-01-08T12:02:26.545Z,66.12
2023-01-08T12:05:08.904Z,66.11
2023-01-08T12:07:39.780Z,66.25
2023-01-08T12:10:12.748Z,65.87
2023-01-08T12:12:46.883Z,66.07
2023-01-08T12:15:17.410Z,65.87
2023-01-08T12:18:10.376Z,66.11
2023-01-08T12:20:38.535Z,66.03
2023-01-08T12:23:14.386Z,65.97
2023-01-08T12:25:48.282Z,65.96
2023-01-08T12:28:21.887Z,66.15
2023-01-08T12:30:57.440Z,66.17
2023-01-08T12:33:33.457Z,66.25
2023-01-08T12:36:01.853Z,66.30
2023-01-08T12:38:31.001Z,66.17
2023-01-08T12:40:59.779Z,66.19
2023-01-08T12:43:31.447Z,66.06
2023-01-08T12:46:00.349Z,66.07
2023-01-08T12:48:29.897Z,66.16
2023-01-08T12:51:02.581Z,66.21
2023-01-08T12:53:43.612Z,66.09
2023-01-08T12:56:13.169Z,66.15
2023-01-08T12:58:49.537Z,65.97
2023-01-08T13:01:23.388Z,65.76
2023-01-08T13:03:52.221Z,65.93
2023-01-08T13:06:19.677Z,65.70
2023-01-08T13:08:49.290Z,65.98
2023-01-08T13:11:25.509Z,65.91
2023-01-08T13:13:59.784Z,66.04
2023-01-08T13:16:27.205Z,65.79
2023-01-08T13:18:57.302Z,65.84
2023-01-08T13:21:31.535Z,65.76
2023-01-08T13:24:26.740Z,65.58
2023-01-08T13:26:54.184Z,65.62
2023-01-08T13:29:27.879Z,65.54
2023-01-08T13:31:55.317Z,65.63
2023-01-08T13:34:36.814Z,65.64
2023-01-08T13:37:04.204Z,65.71
2023-01-08T13:39:36.276Z,65.76
2023-01-08T13:42:06.907Z,66.03
2023-01-08T13:44:35.279Z,65.87
2023-01-08T13:47:04.058Z,65.82
2023-01-08T13:49:35.392Z,66.02
2023-01-08T13:52:02.799Z,65.85
2023-01-08T13:54:36.235Z,65.91
2023-01-08T13:57:06.131Z,65.92
2023-01-08T13:59:38.000Z,65.89
2023-01-08T14:02:05.643Z,66.02
2023-01-08T14:04:34.415Z,66.11
2023-01-08T14:07:14.173Z,65.98
2023-01-08T14:09:41.542Z,66.11
2023-01-08T14:12:09.708Z,65.96
2023-01-08T14:14:37.094Z,66.17
2023-01-08T14:17:04.522Z,66.12
2023-01-08T14:19:31.910Z,66.08
2023-01-08T14:22:01.507Z,66.09
2023-01-08T14:24:28.887Z,66.14
2023-01-08T14:26:57.139Z,66.09
2023-01-08T14:29:25.529Z,66.25
2023-01-08T14:31:53.918Z,66.21
2023-01-08T14:34:21.679Z,66.20
2023-01-08T14:36:49.771Z,66.07
2023-01-08T14:39:23.126Z,66.12
2023-01-08T14:42:07.897Z,66.22
2023-01-08T14:44:39.218Z,66.37
2023-01-08T14:47:14.860Z,66.26
2023-01-08T14:49:44.534Z,66.30
2023-01-08T14:52:12.511Z,66.27
2023-01-08T14:54:41.207Z,66.22
2023-01-08T14:57:08.589Z,66.20
2023-01-08T14:59:37.703Z,66.23
2023-01-08T15:02:05.669Z,66.12
2023-01-08T15:04:33.237Z,66.27
2023-01-08T15:07:07.712Z,66.30
2023-01-08T15:09:35.651Z,66.30
2023-01-08T15:12:05.037Z,66.45
2023-01-08T15:14:33.333Z,66.54
2023-01-08T15:17:01.279Z,66.42
2023-01-08T15:19:29.683Z,66.53
2023-01-08T15:21:58.577Z,66.25
2023-01-08T15:24:27.297Z,66.36
2023-01-08T15:26:54.677Z,66.32
2023-01-08T15:29:24.365Z,66.41
2023-01-08T15:31:51.827Z,66.50
2023-01-08T15:34:19.951Z,66.50
2023-01-08T15:36:47.363Z,66.70
2023-01-08T15:39:14.757Z,66.38
2023-01-08T15:41:59.460Z,66.56
2023-01-08T15:44:28.159Z,66.57
2023-01-08T15:46:55.567Z,66.73
2023-01-08T15:49:22.963Z,66.85
2023-01-08T15:51:50.921Z,66.67
2023-01-08T15:54:18.332Z,66.67
2023-01-08T15:56:45.724Z,66.53
2023-01-08T15:59:13.116Z,66.67
2023-01-08T16:01:41.910Z,66.57
2023-01-08T16:04:09.358Z,66.57
2023-01-08T16:06:36.799Z,66.75
2023-01-08T16:09:04.352Z,66.64
2023-01-08T16:11:31.758Z,66.98
2023-01-08T16:13:59.143Z,66.75
2023-01-08T16:16:26.587Z,66.71
2023-01-08T16:18:55.279Z,66.63
2023-01-08T16:21:22.664Z,66.91
2023-01-08T16:23:50.089Z,66.95
2023-01-08T16:26:17.484Z,66.88
2023-01-08T16:28:44.890Z,66.79
2023-01-08T16:31:12.368Z,66.94
2023-01-08T16:33:39.797Z,67.17
2023-01-08T16:36:09.675Z,67.09
2023-01-08T16:38:37.400Z,67.23
2023-01-08T16:41:05.501Z,67.15
2023-01-08T16:43:33.025Z,67.27
2023-01-08T16:46:03.167Z,67.16
2023-01-08T16:48:31.059Z,67.34
2023-01-08T16:50:59.488Z,67.22
2023-01-08T16:53:28.326Z,67.32
2023-01-08T16:55:55.690Z,67.30
2023-01-08T16:58:23.116Z,67.32
2023-01-08T17:00:50.534Z,67.39
2023-01-08T17:03:18.318Z,67.30
2023-01-08T17:05:45.721Z,67.42
2023-01-08T17:08:15.762Z,67.51
2023-01-08T17:10:44.532Z,67.34
2023-01-08T17:13:11.921Z,67.50
2023-01-08T17:15:39.359Z,67.39
2023-01-08T17:18:06.859Z,67.50
2023-01-08T17:20:34.259Z,67.65
2023-01-08T17:23:01.752Z,67.70
2023-01-08T17:25:29.241Z,67.48
2023-01-08T17:27:57.950Z,67.75
2023-01-08T17:30:25.331Z,67.60
2023-01-08T17:32:52.721Z,67.51
2023-01-08T17:35:20.171Z,67.70
2023-01-08T17:37:47.717Z,67.71
2023-01-08T17:40:15.141Z,67.58
2023-01-08T17:42:42.563Z,67.40
2023-01-08T17:45:12.182Z,67.41
2023-01-08T17:47:39.580Z,67.66
2023-01-08T17:50:07.364Z,67.70
2023-01-08T17:52:34.786Z,67.56
2023-01-08T17:55:02.185Z,67.59
2023-01-08T17:57:31.522Z,67.58
2023-01-08T17:59:59.590Z,67.80
2023-01-08T18:02:28.482Z,67.81
2023-01-08T18:04:55.876Z,67.76
2023-01-08T18:07:24.023Z,67.73
2023-01-08T18:09:52.730Z,67.81
2023-01-08T18:12:20.191Z,67.73
2023-01-08T18:14:47.570Z,67.64
2023-01-08T18:17:14.988Z,67.74
2023-01-08T18:19:43.681Z,67.60
2023-01-08T18:22:11.847Z,67.68
2023-01-08T18:24:39.271Z,67.68
2023-01-08T18:27:06.720Z,67.63
2023-01-08T18:29:34.131Z,67.66
2023-01-08T18:32:01.986Z,67.59
2023-01-08T18:34:29.409Z,67.31
2023-01-08T18:36:58.094Z,67.47
2023-01-08T18:39:26.486Z,67.53
2023-01-08T18:42:11.369Z,67.71
2023-01-08T18:44:38.779Z,67.67
2023-01-08T18:47:06.156Z,67.46
2023-01-08T18:49:33.626Z,67.79
2023-01-08T18:52:02.301Z,67.78
2023-01-08T18:54:29.742Z,67.81
2023-01-08T18:56:57.108Z,67.77
2023-01-08T18:59:25.295Z,67.83
2023-01-08T19:01:53.259Z,67.82
2023-01-08T19:04:20.791Z,67.60
2023-01-08T19:06:48.179Z,67.58
2023-01-08T19:09:17.077Z,67.72
2023-01-08T19:11:44.505Z,67.69
2023-01-08T19:14:12.315Z,67.74
2023-01-08T19:16:39.695Z,67.72
2023-01-08T19:19:07.130Z,67.70
2023-01-08T19:21:34.545Z,67.64
2023-01-08T19:24:01.940Z,67.68
2023-01-08T19:26:30.643Z,67.65
2023-01-08T19:28:58.056Z,67.90
2023-01-08T19:31:25.506Z,67.62
2023-01-08T19:33:53.332Z,67.71
2023-01-08T19:36:21.013Z,67.62
2023-01-08T19:38:48.428Z,67.69
2023-01-08T19:41:33.123Z,67.80
2023-01-08T19:44:01.836Z,67.58
2023-01-08T19:46:29.363Z,67.44
2023-01-08T19:48:57.371Z,67.60
2023-01-08T19:51:25.031Z,67.80
2023-01-08T19:53:52.420Z,67.82
2023-01-08T19:56:19.811Z,67.52
2023-01-08T19:58:47.200Z,67.42
2023-01-08T20:01:16.976Z,67.44
2023-01-08T20:03:44.553Z,67.44
2023-01-08T20:06:13.099Z,67.65
2023-01-08T20:08:40.569Z,67.51
2023-01-08T20:11:08.448Z,67.63
2023-01-08T20:13:36.545Z,67.70
2023-01-08T20:16:04.871Z,67.51
2023-01-08T20:18:33.704Z,67.51
2023-01-08T20:21:05.833Z,67.45
2023-01-08T20:23:33.294Z,67.55
2023-01-08T20:26:03.914Z,67.54
2023-01-08T20:28:31.309Z,67.56
2023-01-08T20:31:04.153Z,67.53
2023-01-08T20:33:32.878Z,67.45
2023-01-08T20:36:00.258Z,67.63
2023-01-08T20:38:27.693Z,67.52
2023-01-08T20:40:55.072Z,67.60
2023-01-08T20:43:22.501Z,67.58
2023-01-08T20:45:49.956Z,67.58
2023-01-08T20:48:17.395Z,67.48
2023-01-08T20:50:46.967Z,67.45
2023-01-08T20:53:14.647Z,67.49
2023-01-08T20:55:43.556Z,67.48
2023-01-08T20:58:11.028Z,67.45
2023-01-08T21:00:38.449Z,67.37
2023-01-08T21:03:05.951Z,67.54
2023-01-08T21:05:36.076Z,67.47
2023-01-08T21:08:04.793Z,67.43
2023-01-08T21:10:32.190Z,67.62
2023-01-08T21:12:59.565Z,67.54
2023-01-08T21:15:26.998Z,67.52
2023-01-08T21:17:54.358Z,67.63
2023-01-08T21:20:21.753Z,67.48
2023-01-08T21:22:49.191Z,67.52
2023-01-08T21:25:18.914Z,67.51
2023-01-08T21:27:46.337Z,67.41
2023-01-08T21:30:14.035Z,67.57
2023-01-08T21:32:41.415Z,67.50
2023-01-08T21:35:09.176Z,67.69
2023-01-08T21:37:37.141Z,67.49
2023-01-08T21:40:05.785Z,67.47
2023-01-08T21:42:52.026Z,67.60
2023-01-08T21:45:25.767Z,67.46
2023-01-08T21:47:53.399Z,67.50
2023-01-08T21:50:21.101Z,67.46
2023-01-08T21:53:08.112Z,67.66
2023-01-08T21:55:35.628Z,67.49
2023-01-08T21:58:04.341Z,67.54
2023-01-08T22:00:32.219Z,67.47
2023-01-08T22:02:59.898Z,67.40
2023-01-08T22:05:27.423Z,67.61
2023-01-08T22:07:54.823Z,67.69
2023-01-08T22:10:22.220Z,67.60
2023-01-08T22:12:49.593Z,67.44
2023-01-08T22:15:19.290Z,67.50
2023-01-08T22:17:46.696Z,67.45
2023-01-08T22:20:14.264Z,67.22
2023-01-08T22:22:45.461Z,67.35
2023-01-08T22:25:12.854Z,67.46
2023-01-08T22:27:40.225Z,67.54
2023-01-08T22:30:08.903Z,67.45
2023-01-08T22:32:37.588Z,67.28
2023-01-08T22:35:05.692Z,67.52
2023-01-08T22:37:33.135Z,67.52
2023-01-08T22:40:00.675Z,67.36
2023-01-08T22:42:28.052Z,67.50
2023-01-08T22:44:55.461Z,67.32
2023-01-08T22:47:22.834Z,67.31
2023-01-08T22:49:51.554Z,67.55
2023-01-08T22:52:18.984Z,67.61
2023-01-08T22:54:46.415Z,67.58
2023-01-08T22:57:13.799Z,67.55
2023-01-08T22:59:41.190Z,67.49
2023-01-08T23:02:08.574Z,67.61
2023-01-08T23:04:35.956Z,67.55
2023-01-08T23:07:04.657Z,67.46
2023-01-08T23:09:32.059Z,67.45
2023-01-08T23:11:59.447Z,67.34
2023-01-08T23:14:26.830Z,67.41
2023-01-08T23:16:54.207Z,67.61
2023-01-08T23:19:21.613Z,67.37
2023-01-08T23:21:48.987Z,67.67
2023-01-08T23:24:17.682Z,67.53
2023-01-08T23:26:45.058Z,67.40
2023-01-08T23:29:12.472Z,67.61
2023-01-08T23:31:39.920Z,67.55
2023-01-08T23:34:07.523Z,67.12
2023-01-08T23:36:34.919Z,67.33
2023-01-08T23:39:02.327Z,67.39
2023-01-08T23:41:34.995Z,67.30
2023-01-08T23:44:04.523Z,67.13
2023-01-08T23:46:31.960Z,67.20
2023-01-08T23:48:59.448Z,67.39
2023-01-08T23:51:26.868Z,67.51
2023-01-08T23:53:54.244Z,67.34
2023-01-08T23:56:21.713Z,67.60
2023-01-08T23:58:50.403Z,67.14
